createdAt,value
2017-10-12T00:00:17.000Z,0
2017-10-12T00:01:19.376Z,0
2017-10-12T00:02:21.762Z,0
2017-10-12T00:03:24.139Z,0
2017-10-12T00:04:26.513Z,0
2017-10-12T00:05:29.250Z,0
2017-10-12T00:06:31.621Z,0
2017-10-12T00:07:34.003Z,0
2017-10-12T00:08:36.722Z,0
2017-10-12T00:09:39.100Z,0
2017-10-12T00:10:41.469Z,0
2017-10-12T00:11:43.853Z,0
2017-10-12T00:12:46.235Z,0
2017-10-12T00:13:48.614Z,0
2017-10-12T00:14:50.995Z,0
2017-10-12T00:15:53.386Z,0
2017-10-12T00:16:55.753Z,0
2017-10-12T00:17:58.146Z,0
2017-10-12T00:19:00.529Z,0
2017-10-12T00:20:02.904Z,0
2017-10-12T00:21:05.283Z,0
2017-10-12T00:22:07.653Z,0
2017-10-12T00:23:10.032Z,0
2017-10-12T00:24:12.412Z,0
2017-10-12T00:25:14.785Z,0
2017-10-12T00:26:17.533Z,0
2017-10-12T00:27:19.909Z,0
2017-10-12T00:28:22.293Z,0
2017-10-12T00:29:25.017Z,0
2017-10-12T00:30:27.399Z,0
2017-10-12T00:31:29.773Z,0
2017-10-12T00:32:32.154Z,0
2017-10-12T00:33:34.528Z,0
2017-10-12T00:34:36.912Z,0
2017-10-12T00:35:39.284Z,0
2017-10-12T00:36:41.667Z,0
2017-10-12T00:37:44.044Z,0
2017-10-12T00:38:46.768Z,0
2017-10-12T00:39:49.150Z,0
2017-10-12T00:40:51.535Z,0
2017-10-12T00:41:53.903Z,0
2017-10-12T00:42:56.282Z,0
2017-10-12T00:43:59.041Z,0
2017-10-12T00:45:01.415Z,0
2017-10-12T00:46:03.796Z,0
2017-10-12T00:47:06.177Z,0
2017-10-12T00:48:08.552Z,0
2017-10-12T00:49:10.943Z,0
2017-10-12T00:50:13.674Z,0
2017-10-12T00:51:16.037Z,0
2017-10-12T00:52:18.417Z,0
2017-10-12T00:53:21.145Z,0
2017-10-12T00:54:23.528Z,0
2017-10-12T00:55:25.902Z,0
2017-10-12T00:56:28.290Z,0
2017-10-12T00:57:30.670Z,0
2017-10-12T00:58:33.052Z,0
2017-10-12T00:59:35.434Z,0
2017-10-12T01:00:37.800Z,0
2017-10-12T01:01:40.182Z,0
2017-10-12T01:02:42.556Z,0
2017-10-12T01:03:44.930Z,0
2017-10-12T01:04:47.309Z,0
2017-10-12T01:05:49.684Z,0
2017-10-12T01:06:52.409Z,0
2017-10-12T01:07:55.150Z,0
2017-10-12T01:08:57.530Z,0
2017-10-12T01:09:59.908Z,0
2017-10-12T01:11:02.285Z,0
2017-10-12T01:12:04.674Z,0
2017-10-12T01:13:07.054Z,0
2017-10-12T01:14:09.432Z,0
2017-10-12T01:15:11.811Z,0
2017-10-12T01:16:14.180Z,0
2017-10-12T01:17:16.568Z,0
2017-10-12T01:18:19.296Z,0
2017-10-12T01:19:21.680Z,0
2017-10-12T01:20:24.058Z,0
2017-10-12T01:21:26.429Z,0
2017-10-12T01:22:28.815Z,0
2017-10-12T01:23:31.204Z,0
2017-10-12T01:24:33.566Z,0
2017-10-12T01:25:35.953Z,0
2017-10-12T01:26:38.334Z,0
2017-10-12T01:27:40.707Z,0
2017-10-12T01:28:43.092Z,0
2017-10-12T01:29:45.472Z,0
2017-10-12T01:30:47.840Z,0
2017-10-12T01:31:50.226Z,0
2017-10-12T01:32:52.601Z,0
2017-10-12T01:33:54.979Z,0
2017-10-12T01:34:57.360Z,0
2017-10-12T01:35:59.744Z,0
2017-10-12T01:37:02.118Z,0
2017-10-12T01:38:04.846Z,0
2017-10-12T01:39:07.230Z,0
2017-10-12T01:40:09.609Z,0
2017-10-12T01:41:11.974Z,0
2017-10-12T01:42:14.352Z,0
2017-10-12T01:43:16.736Z,0
2017-10-12T01:44:19.112Z,0
2017-10-12T01:45:21.491Z,0
2017-10-12T01:46:23.877Z,0
2017-10-12T01:47:26.252Z,0
2017-10-12T01:48:28.635Z,0
2017-10-12T01:49:31.020Z,0
2017-10-12T01:50:33.379Z,0
2017-10-12T01:51:35.759Z,0
2017-10-12T01:52:38.495Z,0
2017-10-12T01:53:40.871Z,0
2017-10-12T01:54:43.247Z,0
2017-10-12T01:55:45.966Z,0
2017-10-12T01:56:48.335Z,0
2017-10-12T01:57:50.738Z,0
2017-10-12T01:58:53.103Z,0
2017-10-12T01:59:55.478Z,0
2017-10-12T02:00:57.861Z,0
2017-10-12T02:02:00.233Z,0
2017-10-12T02:03:02.623Z,0
2017-10-12T02:04:05.011Z,0
2017-10-12T02:05:07.726Z,0
2017-10-12T02:06:10.106Z,0
2017-10-12T02:07:12.846Z,0
2017-10-12T02:08:15.225Z,0
2017-10-12T02:09:17.595Z,0
2017-10-12T02:10:20.332Z,0
2017-10-12T02:11:22.703Z,0
2017-10-12T02:12:25.076Z,0
2017-10-12T02:13:27.465Z,0
2017-10-12T02:14:29.836Z,0
2017-10-12T02:15:32.205Z,0
2017-10-12T02:16:34.599Z,0
2017-10-12T02:17:36.972Z,0
2017-10-12T02:18:39.351Z,0
2017-10-12T02:19:41.730Z,0
2017-10-12T02:20:44.104Z,0
2017-10-12T02:21:46.479Z,0
2017-10-12T02:22:48.875Z,0
2017-10-12T02:23:51.245Z,0
2017-10-12T02:24:53.631Z,0
2017-10-12T02:25:56.350Z,0
2017-10-12T02:26:58.725Z,0
2017-10-12T02:28:01.103Z,0
2017-10-12T02:29:03.477Z,0
2017-10-12T02:30:05.848Z,0
2017-10-12T02:31:08.232Z,0
2017-10-12T02:32:10.606Z,0
2017-10-12T02:33:12.988Z,0
2017-10-12T02:34:15.366Z,0
2017-10-12T02:35:17.748Z,0
2017-10-12T02:36:20.120Z,0
2017-10-12T02:37:22.496Z,0
2017-10-12T02:38:24.871Z,0
2017-10-12T02:39:27.254Z,0
2017-10-12T02:40:29.623Z,0
2017-10-12T02:41:32.388Z,0
2017-10-12T02:42:35.130Z,0
2017-10-12T02:43:37.506Z,0
2017-10-12T02:44:39.881Z,0
2017-10-12T02:45:42.266Z,0
2017-10-12T02:46:44.640Z,0
2017-10-12T02:47:47.381Z,0
2017-10-12T02:48:49.753Z,0
2017-10-12T02:49:52.127Z,0
2017-10-12T02:50:54.502Z,0
2017-10-12T02:51:56.881Z,0
2017-10-12T02:52:59.256Z,0
2017-10-12T02:54:01.646Z,0
2017-10-12T02:55:04.358Z,0
2017-10-12T02:56:07.094Z,0
2017-10-12T02:57:09.466Z,0
2017-10-12T02:58:11.836Z,0
2017-10-12T02:59:14.218Z,0
2017-10-12T03:00:16.969Z,0
2017-10-12T03:01:19.347Z,0
2017-10-12T03:02:21.748Z,0
2017-10-12T03:03:24.865Z,0
2017-10-12T03:04:27.241Z,0
2017-10-12T03:05:29.615Z,0
2017-10-12T03:06:31.997Z,0
2017-10-12T03:07:34.382Z,0
2017-10-12T03:08:36.753Z,0
2017-10-12T03:09:39.134Z,0
2017-10-12T03:10:41.854Z,0
2017-10-12T03:11:44.236Z,0
2017-10-12T03:12:46.618Z,0
2017-10-12T03:13:48.980Z,0
2017-10-12T03:14:51.721Z,0
2017-10-12T03:15:54.087Z,0
2017-10-12T03:16:56.470Z,0
2017-10-12T03:17:58.853Z,0
2017-10-12T03:19:01.224Z,0
2017-10-12T03:20:03.606Z,0
2017-10-12T03:21:05.994Z,0
2017-10-12T03:22:08.367Z,0
2017-10-12T03:23:10.740Z,0
2017-10-12T03:24:13.115Z,0
2017-10-12T03:25:15.486Z,0
2017-10-12T03:26:18.222Z,0
2017-10-12T03:27:20.960Z,0
2017-10-12T03:28:23.323Z,0
2017-10-12T03:29:25.706Z,0
2017-10-12T03:30:28.083Z,0
2017-10-12T03:31:30.464Z,0
2017-10-12T03:32:32.837Z,0
2017-10-12T03:33:35.216Z,0
2017-10-12T03:34:37.587Z,0
2017-10-12T03:35:39.974Z,0
2017-10-12T03:36:42.727Z,0
2017-10-12T03:37:45.093Z,0
2017-10-12T03:38:47.475Z,0
2017-10-12T03:39:49.859Z,0
2017-10-12T03:40:52.234Z,0
2017-10-12T03:41:54.611Z,0
2017-10-12T03:42:56.988Z,0
2017-10-12T03:43:59.369Z,0
2017-10-12T03:45:02.097Z,0
2017-10-12T03:46:04.470Z,0
2017-10-12T03:47:06.844Z,0
2017-10-12T03:48:09.225Z,0
2017-10-12T03:49:11.964Z,0
2017-10-12T03:50:14.337Z,0
2017-10-12T03:51:16.726Z,0
2017-10-12T03:52:19.448Z,0
2017-10-12T03:53:21.836Z,0
2017-10-12T03:54:24.207Z,0
2017-10-12T03:55:26.588Z,0
2017-10-12T03:56:28.969Z,0
2017-10-12T03:57:31.691Z,0
2017-10-12T03:58:34.416Z,0
2017-10-12T03:59:36.788Z,0
2017-10-12T04:00:39.528Z,0
2017-10-12T04:01:42.250Z,0
2017-10-12T04:02:44.981Z,0
2017-10-12T04:03:47.372Z,0
2017-10-12T04:04:49.738Z,0
2017-10-12T04:05:52.123Z,0
2017-10-12T04:06:54.504Z,0
2017-10-12T04:07:56.877Z,0
2017-10-12T04:08:59.258Z,0
2017-10-12T04:10:01.629Z,0
2017-10-12T04:11:04.018Z,0
2017-10-12T04:12:06.398Z,0
2017-10-12T04:13:08.759Z,0
2017-10-12T04:14:11.149Z,0
2017-10-12T04:15:13.528Z,0
2017-10-12T04:16:15.913Z,0
2017-10-12T04:17:18.293Z,0
2017-10-12T04:18:20.677Z,0
2017-10-12T04:19:23.053Z,0
2017-10-12T04:20:25.439Z,0
2017-10-12T04:21:27.813Z,0
2017-10-12T04:22:30.192Z,0
2017-10-12T04:23:32.955Z,0
2017-10-12T04:24:35.332Z,0
2017-10-12T04:25:37.715Z,0
2017-10-12T04:26:40.099Z,0
2017-10-12T04:27:42.473Z,0
2017-10-12T04:28:44.855Z,0
2017-10-12T04:29:47.229Z,0
2017-10-12T04:30:49.615Z,0
2017-10-12T04:31:51.987Z,0
2017-10-12T04:32:54.369Z,0
2017-10-12T04:33:57.088Z,0
2017-10-12T04:34:59.486Z,0
2017-10-12T04:36:02.214Z,0
2017-10-12T04:37:04.576Z,0
2017-10-12T04:38:06.955Z,0
2017-10-12T04:39:09.334Z,0
2017-10-12T04:40:11.706Z,0
2017-10-12T04:41:14.090Z,0
2017-10-12T04:42:16.816Z,0
2017-10-12T04:43:19.197Z,0
2017-10-12T04:44:21.580Z,0
2017-10-12T04:45:23.958Z,0
2017-10-12T04:46:26.328Z,0
2017-10-12T04:47:28.704Z,0
2017-10-12T04:48:31.079Z,0
2017-10-12T04:49:33.452Z,0
2017-10-12T04:50:35.836Z,0
2017-10-12T04:51:38.203Z,0
2017-10-12T04:52:40.578Z,0
2017-10-12T04:53:42.965Z,0
2017-10-12T04:54:45.701Z,0
2017-10-12T04:55:48.080Z,0
2017-10-12T04:56:50.457Z,0
2017-10-12T04:57:52.827Z,0
2017-10-12T04:58:55.219Z,0
2017-10-12T04:59:57.602Z,0
2017-10-12T05:01:00.331Z,0
2017-10-12T05:02:03.080Z,0
2017-10-12T05:03:05.457Z,4
2017-10-12T05:04:07.829Z,4
2017-10-12T05:05:10.561Z,0
2017-10-12T05:06:12.940Z,4
2017-10-12T05:07:15.668Z,4
2017-10-12T05:08:18.046Z,4
2017-10-12T05:09:20.419Z,8
2017-10-12T05:10:22.805Z,12
2017-10-12T05:11:25.234Z,12
2017-10-12T05:12:27.605Z,12
2017-10-12T05:13:30.342Z,12
2017-10-12T05:14:32.721Z,12
2017-10-12T05:15:35.448Z,12
2017-10-12T05:16:37.828Z,16
2017-10-12T05:17:40.196Z,20
2017-10-12T05:18:42.570Z,20
2017-10-12T05:19:44.964Z,24
2017-10-12T05:20:47.688Z,32
2017-10-12T05:21:50.061Z,40
2017-10-12T05:22:52.446Z,56
2017-10-12T05:23:54.824Z,64
2017-10-12T05:24:57.566Z,84
2017-10-12T05:25:59.941Z,100
2017-10-12T05:27:02.314Z,128
2017-10-12T05:28:04.692Z,144
2017-10-12T05:29:07.412Z,164
2017-10-12T05:30:09.791Z,180
2017-10-12T05:31:12.511Z,200
2017-10-12T05:32:15.600Z,220
2017-10-12T05:33:17.979Z,236
2017-10-12T05:34:20.708Z,256
2017-10-12T05:35:23.083Z,268
2017-10-12T05:36:25.458Z,256
2017-10-12T05:37:27.835Z,264
2017-10-12T05:38:30.217Z,276
2017-10-12T05:39:32.592Z,332
2017-10-12T05:40:34.969Z,400
2017-10-12T05:41:37.344Z,452
2017-10-12T05:42:39.713Z,492
2017-10-12T05:43:42.109Z,520
2017-10-12T05:44:44.485Z,560
2017-10-12T05:45:46.883Z,636
2017-10-12T05:46:49.245Z,716
2017-10-12T05:47:51.618Z,744
2017-10-12T05:48:54.016Z,752
2017-10-12T05:49:56.757Z,756
2017-10-12T05:50:59.466Z,768
2017-10-12T05:52:01.847Z,800
2017-10-12T05:53:04.228Z,816
2017-10-12T05:54:06.600Z,860
2017-10-12T05:55:08.984Z,944
2017-10-12T05:56:11.359Z,1012
2017-10-12T05:57:14.073Z,1044
2017-10-12T05:58:16.819Z,1092
2017-10-12T05:59:19.189Z,1120
2017-10-12T06:00:21.565Z,1180
2017-10-12T06:01:23.943Z,1256
2017-10-12T06:02:26.324Z,1316
2017-10-12T06:03:29.046Z,1396
2017-10-12T06:04:31.425Z,1468
2017-10-12T06:05:33.808Z,1544
2017-10-12T06:06:36.186Z,1564
2017-10-12T06:07:38.552Z,1668
2017-10-12T06:08:40.938Z,1748
2017-10-12T06:09:43.313Z,1784
2017-10-12T06:10:45.698Z,1936
2017-10-12T06:11:48.076Z,2332
2017-10-12T06:12:50.452Z,2208
2017-10-12T06:13:52.828Z,2244
2017-10-12T06:14:55.208Z,2244
2017-10-12T06:15:57.590Z,2276
2017-10-12T06:16:59.983Z,2520
2017-10-12T06:18:02.337Z,3124
2017-10-12T06:19:05.074Z,3508
2017-10-12T06:20:07.456Z,3320
2017-10-12T06:21:10.193Z,3336
2017-10-12T06:22:12.558Z,3600
2017-10-12T06:23:14.938Z,3856
2017-10-12T06:24:17.320Z,4072
2017-10-12T06:25:19.703Z,4264
2017-10-12T06:26:22.078Z,4212
2017-10-12T06:27:24.454Z,3924
2017-10-12T06:28:26.826Z,4716
2017-10-12T06:29:29.208Z,4404
2017-10-12T06:30:31.588Z,4460
2017-10-12T06:31:33.973Z,5512
2017-10-12T06:32:36.345Z,5196
2017-10-12T06:33:38.728Z,5944
2017-10-12T06:34:41.112Z,5940
2017-10-12T06:35:43.475Z,5444
2017-10-12T06:36:45.856Z,5020
2017-10-12T06:37:48.236Z,5140
2017-10-12T06:38:50.604Z,5296
2017-10-12T06:39:52.983Z,5140
2017-10-12T06:40:55.355Z,5492
2017-10-12T06:41:57.723Z,5584
2017-10-12T06:43:00.121Z,6224
2017-10-12T06:44:02.850Z,6168
2017-10-12T06:45:05.229Z,5656
2017-10-12T06:46:07.964Z,6384
2017-10-12T06:47:10.343Z,6936
2017-10-12T06:48:12.714Z,6304
2017-10-12T06:49:15.105Z,6196
2017-10-12T06:50:17.476Z,6924
2017-10-12T06:51:19.859Z,7728
2017-10-12T06:52:22.229Z,8048
2017-10-12T06:53:24.608Z,6688
2017-10-12T06:54:26.983Z,6468
2017-10-12T06:55:29.357Z,7188
2017-10-12T06:56:31.734Z,9148
2017-10-12T06:57:34.122Z,9288
2017-10-12T06:58:36.492Z,8196
2017-10-12T06:59:38.869Z,9484
2017-10-12T07:00:41.245Z,8764
2017-10-12T07:01:43.631Z,7208
2017-10-12T07:02:46.003Z,7828
2017-10-12T07:03:48.382Z,8328
2017-10-12T07:04:50.753Z,8600
2017-10-12T07:05:53.133Z,8512
2017-10-12T07:06:55.865Z,7780
2017-10-12T07:07:58.246Z,7200
2017-10-12T07:09:00.621Z,7148
2017-10-12T07:10:03.007Z,7004
2017-10-12T07:11:05.380Z,8624
2017-10-12T07:12:07.763Z,21888
2017-10-12T07:13:10.133Z,29280
2017-10-12T07:14:12.516Z,13892
2017-10-12T07:15:14.890Z,13280
2017-10-12T07:16:17.278Z,23136
2017-10-12T07:17:19.655Z,9248
2017-10-12T07:18:22.033Z,8452
2017-10-12T07:19:24.402Z,7384
2017-10-12T07:20:26.784Z,6836
2017-10-12T07:21:29.530Z,6356
2017-10-12T07:22:31.912Z,5524
2017-10-12T07:23:34.282Z,7332
2017-10-12T07:24:37.015Z,21824
2017-10-12T07:25:39.391Z,10268
2017-10-12T07:26:42.123Z,14752
2017-10-12T07:27:45.206Z,46688
2017-10-12T07:28:47.589Z,24416
2017-10-12T07:29:49.960Z,50112
2017-10-12T07:30:52.356Z,46912
2017-10-12T07:31:54.731Z,53024
2017-10-12T07:32:57.107Z,28960
2017-10-12T07:33:59.846Z,43552
2017-10-12T07:35:02.230Z,47552
2017-10-12T07:36:04.620Z,55936
2017-10-12T07:37:07.000Z,72768
2017-10-12T07:38:09.386Z,73472
2017-10-12T07:39:11.769Z,59264
2017-10-12T07:40:14.133Z,49696
2017-10-12T07:41:16.516Z,65600
2017-10-12T07:42:18.895Z,69120
2017-10-12T07:43:21.267Z,58784
2017-10-12T07:44:23.655Z,51936
2017-10-12T07:45:26.025Z,51296
2017-10-12T07:46:28.406Z,50080
2017-10-12T07:47:30.799Z,53024
2017-10-12T07:48:33.177Z,54496
2017-10-12T07:49:35.553Z,55136
2017-10-12T07:50:37.928Z,58976
2017-10-12T07:51:40.306Z,19264
2017-10-12T07:52:42.693Z,22976
2017-10-12T07:53:45.085Z,12704
2017-10-12T07:54:47.455Z,13404
2017-10-12T07:55:49.844Z,12368
2017-10-12T07:56:52.237Z,12508
2017-10-12T07:57:54.619Z,14272
2017-10-12T07:58:56.992Z,14132
2017-10-12T07:59:59.373Z,12228
2017-10-12T08:01:01.750Z,10284
2017-10-12T08:02:04.500Z,10764
2017-10-12T08:03:06.879Z,14332
2017-10-12T08:04:09.253Z,17584
2017-10-12T08:05:11.975Z,52864
2017-10-12T08:06:14.370Z,13676
2017-10-12T08:07:16.750Z,42144
2017-10-12T08:08:19.478Z,41376
2017-10-12T08:09:21.856Z,18560
2017-10-12T08:10:24.600Z,15624
2017-10-12T08:11:26.984Z,24352
2017-10-12T08:12:29.734Z,11568
2017-10-12T08:13:32.102Z,8036
2017-10-12T08:14:34.484Z,7624
2017-10-12T08:15:37.223Z,27968
2017-10-12T08:16:39.607Z,12700
2017-10-12T08:17:41.992Z,16056
2017-10-12T08:18:44.718Z,25504
2017-10-12T08:19:47.102Z,14704
2017-10-12T08:20:49.491Z,20416
2017-10-12T08:21:51.872Z,52384
2017-10-12T08:22:54.249Z,20416
2017-10-12T08:23:56.625Z,18752
2017-10-12T08:24:59.011Z,12112
2017-10-12T08:26:01.391Z,9648
2017-10-12T08:27:03.777Z,9864
2017-10-12T08:28:06.142Z,10632
2017-10-12T08:29:08.523Z,8040
2017-10-12T08:30:10.922Z,7236
2017-10-12T08:31:13.298Z,6564
2017-10-12T08:32:15.690Z,7860
2017-10-12T08:33:18.416Z,7904
2017-10-12T08:34:20.792Z,9088
2017-10-12T08:35:23.181Z,10704
2017-10-12T08:36:25.556Z,11468
2017-10-12T08:37:27.942Z,6560
2017-10-12T08:38:30.333Z,7364
2017-10-12T08:39:32.699Z,12956
2017-10-12T08:40:35.093Z,9576
2017-10-12T08:41:37.473Z,59968
2017-10-12T08:42:39.859Z,13984
2017-10-12T08:43:42.241Z,15924
2017-10-12T08:44:44.623Z,14272
2017-10-12T08:45:46.996Z,13444
2017-10-12T08:46:49.385Z,12680
2017-10-12T08:47:51.768Z,17164
2017-10-12T08:48:54.152Z,28352
2017-10-12T08:49:56.533Z,67008
2017-10-12T08:50:58.910Z,65856
2017-10-12T08:52:01.294Z,66368
2017-10-12T08:53:03.675Z,53920
2017-10-12T08:54:06.051Z,59584
2017-10-12T08:55:08.802Z,67552
2017-10-12T08:56:11.540Z,65696
2017-10-12T08:57:14.285Z,69216
2017-10-12T08:58:16.662Z,43424
2017-10-12T08:59:19.048Z,67680
2017-10-12T09:00:21.420Z,64992
2017-10-12T09:01:23.818Z,56896
2017-10-12T09:02:26.203Z,21152
2017-10-12T09:03:28.578Z,67520
2017-10-12T09:04:30.967Z,64960
2017-10-12T09:05:33.341Z,63872
2017-10-12T09:06:35.722Z,67040
2017-10-12T09:07:38.106Z,43456
2017-10-12T09:08:40.486Z,60736
2017-10-12T09:09:42.862Z,56416
2017-10-12T09:10:45.253Z,52800
2017-10-12T09:11:47.630Z,57824
2017-10-12T09:12:50.011Z,52448
2017-10-12T09:13:52.743Z,65184
2017-10-12T09:14:55.132Z,65152
2017-10-12T09:15:57.512Z,60416
2017-10-12T09:16:59.895Z,58816
2017-10-12T09:18:02.280Z,75904
2017-10-12T09:19:04.656Z,53664
2017-10-12T09:20:07.395Z,29760
2017-10-12T09:21:09.781Z,85344
2017-10-12T09:22:12.165Z,88224
2017-10-12T09:23:14.548Z,76768
2017-10-12T09:24:17.279Z,52608
2017-10-12T09:25:19.658Z,83616
2017-10-12T09:26:22.049Z,76256
2017-10-12T09:27:24.420Z,81568
2017-10-12T09:28:26.800Z,74496
2017-10-12T09:29:29.193Z,77440
2017-10-12T09:30:31.566Z,87200
2017-10-12T09:31:34.315Z,93600
2017-10-12T09:32:36.699Z,97920
2017-10-12T09:33:39.444Z,99872
2017-10-12T09:34:41.812Z,81824
2017-10-12T09:35:44.201Z,100640
2017-10-12T09:36:46.585Z,52928
2017-10-12T09:37:48.967Z,34912
2017-10-12T09:38:51.351Z,29664
2017-10-12T09:39:53.738Z,30176
2017-10-12T09:40:56.126Z,29664
2017-10-12T09:41:58.520Z,20416
2017-10-12T09:43:00.895Z,57888
2017-10-12T09:44:03.283Z,48096
2017-10-12T09:45:05.667Z,20480
2017-10-12T09:46:08.055Z,15336
2017-10-12T09:47:10.436Z,16076
2017-10-12T09:48:12.816Z,91936
2017-10-12T09:49:15.195Z,32320
2017-10-12T09:50:17.578Z,19968
2017-10-12T09:51:20.307Z,22496
2017-10-12T09:52:22.699Z,35552
2017-10-12T09:53:25.422Z,82944
2017-10-12T09:54:27.818Z,29504
2017-10-12T09:55:30.195Z,68224
2017-10-12T09:56:32.589Z,24960
2017-10-12T09:57:34.966Z,21760
2017-10-12T09:58:37.357Z,16724
2017-10-12T09:59:39.731Z,22240
2017-10-12T10:00:42.124Z,23776
2017-10-12T10:01:44.505Z,33824
2017-10-12T10:02:46.892Z,75456
2017-10-12T10:03:49.280Z,35392
2017-10-12T10:04:51.657Z,49856
2017-10-12T10:05:54.040Z,90240
2017-10-12T10:06:56.767Z,70400
2017-10-12T10:07:59.164Z,81056
2017-10-12T10:09:01.533Z,95424
2017-10-12T10:10:03.929Z,94368
2017-10-12T10:11:06.304Z,98208
2017-10-12T10:12:09.027Z,60960
2017-10-12T10:13:11.411Z,50336
2017-10-12T10:14:13.794Z,87104
2017-10-12T10:15:16.165Z,31232
2017-10-12T10:16:18.554Z,64448
2017-10-12T10:17:20.933Z,80704
2017-10-12T10:18:23.676Z,18688
2017-10-12T10:19:26.051Z,21696
2017-10-12T10:20:28.441Z,91328
2017-10-12T10:21:30.824Z,28288
2017-10-12T10:22:33.215Z,96768
2017-10-12T10:23:35.598Z,30720
2017-10-12T10:24:37.982Z,29216
2017-10-12T10:25:40.360Z,25824
2017-10-12T10:26:42.744Z,91392
2017-10-12T10:27:45.125Z,37216
2017-10-12T10:28:47.514Z,30080
2017-10-12T10:29:49.893Z,93024
2017-10-12T10:30:52.279Z,95232
2017-10-12T10:31:54.660Z,98720
2017-10-12T10:32:57.414Z,97536
2017-10-12T10:33:59.783Z,32480
2017-10-12T10:35:02.183Z,21216
2017-10-12T10:36:04.924Z,86656
2017-10-12T10:37:07.308Z,78944
2017-10-12T10:38:09.690Z,83776
2017-10-12T10:39:12.067Z,28256
2017-10-12T10:40:14.453Z,59552
2017-10-12T10:41:17.204Z,65792
2017-10-12T10:42:19.585Z,30496
2017-10-12T10:43:21.957Z,31648
2017-10-12T10:44:24.694Z,89536
2017-10-12T10:45:27.430Z,87584
2017-10-12T10:46:29.804Z,56832
2017-10-12T10:47:32.191Z,54912
2017-10-12T10:48:34.569Z,44736
2017-10-12T10:49:36.952Z,45888
2017-10-12T10:50:39.347Z,33504
2017-10-12T10:51:41.733Z,24128
2017-10-12T10:52:44.106Z,18976
2017-10-12T10:53:46.491Z,14888
2017-10-12T10:54:48.881Z,10964
2017-10-12T10:55:51.265Z,11196
2017-10-12T10:56:53.647Z,10084
2017-10-12T10:57:56.028Z,10776
2017-10-12T10:58:58.410Z,9836
2017-10-12T11:00:01.152Z,8544
2017-10-12T11:01:03.547Z,7008
2017-10-12T11:02:06.278Z,6488
2017-10-12T11:03:09.028Z,5712
2017-10-12T11:04:11.409Z,6328
2017-10-12T11:05:13.796Z,6436
2017-10-12T11:06:16.179Z,6592
2017-10-12T11:07:18.911Z,8984
2017-10-12T11:08:21.293Z,13280
2017-10-12T11:09:23.673Z,14244
2017-10-12T11:10:26.057Z,14104
2017-10-12T11:11:28.433Z,23360
2017-10-12T11:12:30.819Z,27200
2017-10-12T11:13:33.193Z,20480
2017-10-12T11:14:35.950Z,22528
2017-10-12T11:15:38.315Z,25600
2017-10-12T11:16:40.711Z,20096
2017-10-12T11:17:43.089Z,16012
2017-10-12T11:18:45.470Z,15144
2017-10-12T11:19:47.860Z,16484
2017-10-12T11:20:50.246Z,15752
2017-10-12T11:21:52.623Z,16716
2017-10-12T11:22:55.000Z,19776
2017-10-12T11:23:57.368Z,20864
2017-10-12T11:24:59.750Z,18292
2017-10-12T11:26:02.140Z,16328
2017-10-12T11:27:04.522Z,13528
2017-10-12T11:28:06.898Z,11316
2017-10-12T11:29:09.289Z,9492
2017-10-12T11:30:11.670Z,10716
2017-10-12T11:31:14.041Z,12524
2017-10-12T11:32:16.424Z,11200
2017-10-12T11:33:18.814Z,11304
2017-10-12T11:34:21.195Z,8164
2017-10-12T11:35:23.574Z,6868
2017-10-12T11:36:25.955Z,5972
2017-10-12T11:37:28.694Z,5420
2017-10-12T11:38:31.083Z,5980
2017-10-12T11:39:33.465Z,11460
2017-10-12T11:40:35.829Z,23872
2017-10-12T11:41:38.208Z,32672
2017-10-12T11:42:40.934Z,54080
2017-10-12T11:43:43.306Z,84288
2017-10-12T11:44:45.695Z,78016
2017-10-12T11:45:48.076Z,88096
2017-10-12T11:46:50.450Z,94112
2017-10-12T11:47:52.837Z,87488
2017-10-12T11:48:55.222Z,75840
2017-10-12T11:49:57.585Z,45984
2017-10-12T11:50:59.969Z,60480
2017-10-12T11:52:02.699Z,65024
2017-10-12T11:53:05.083Z,72576
2017-10-12T11:54:07.466Z,35872
2017-10-12T11:55:09.842Z,24736
2017-10-12T11:56:12.223Z,19264
2017-10-12T11:57:14.616Z,15132
2017-10-12T11:58:16.993Z,13928
2017-10-12T11:59:19.382Z,15016
2017-10-12T12:00:21.760Z,14248
2017-10-12T12:01:24.145Z,12532
2017-10-12T12:02:26.524Z,10248
2017-10-12T12:03:28.905Z,11276
2017-10-12T12:04:31.291Z,13140
2017-10-12T12:05:33.671Z,11500
2017-10-12T12:06:36.040Z,11924
2017-10-12T12:07:38.423Z,9416
2017-10-12T12:08:40.809Z,8616
2017-10-12T12:09:43.191Z,8112
2017-10-12T12:10:45.575Z,9476
2017-10-12T12:11:48.293Z,9836
2017-10-12T12:12:50.666Z,10580
2017-10-12T12:13:53.064Z,12388
2017-10-12T12:14:55.440Z,11420
2017-10-12T12:15:57.825Z,9144
2017-10-12T12:17:00.204Z,8304
2017-10-12T12:18:02.579Z,13124
2017-10-12T12:19:04.957Z,37088
2017-10-12T12:20:07.338Z,21440
2017-10-12T12:21:09.714Z,17164
2017-10-12T12:22:12.095Z,14912
2017-10-12T12:23:15.182Z,15584
2017-10-12T12:24:17.556Z,24192
2017-10-12T12:25:19.950Z,56256
2017-10-12T12:26:22.324Z,26368
2017-10-12T12:27:24.701Z,20416
2017-10-12T12:28:27.089Z,21312
2017-10-12T12:29:29.476Z,24032
2017-10-12T12:30:31.855Z,27424
2017-10-12T12:31:34.241Z,42176
2017-10-12T12:32:36.963Z,32896
2017-10-12T12:33:39.344Z,33728
2017-10-12T12:34:41.724Z,36320
2017-10-12T12:35:44.103Z,63776
2017-10-12T12:36:46.476Z,40736
2017-10-12T12:37:48.879Z,36896
2017-10-12T12:38:51.250Z,29568
2017-10-12T12:39:53.625Z,20192
2017-10-12T12:40:56.033Z,24928
2017-10-12T12:41:59.156Z,32608
2017-10-12T12:43:01.543Z,43584
2017-10-12T12:44:03.919Z,64320
2017-10-12T12:45:06.305Z,50528
2017-10-12T12:46:08.679Z,50720
2017-10-12T12:47:11.068Z,41408
2017-10-12T12:48:13.819Z,29568
2017-10-12T12:49:16.534Z,22048
2017-10-12T12:50:18.919Z,57440
2017-10-12T12:51:21.306Z,32608
2017-10-12T12:52:24.042Z,63136
2017-10-12T12:53:26.426Z,28160
2017-10-12T12:54:28.811Z,37632
2017-10-12T12:55:31.181Z,31520
2017-10-12T12:56:33.573Z,54656
2017-10-12T12:57:35.952Z,57760
2017-10-12T12:58:38.325Z,44512
2017-10-12T12:59:40.708Z,17052
2017-10-12T13:00:43.096Z,10540
2017-10-12T13:01:45.474Z,11428
2017-10-12T13:02:47.861Z,12112
2017-10-12T13:03:50.599Z,10736
2017-10-12T13:04:52.970Z,12236
2017-10-12T13:05:55.370Z,17328
2017-10-12T13:06:57.743Z,22208
2017-10-12T13:08:00.125Z,22400
2017-10-12T13:09:02.506Z,21600
2017-10-12T13:10:04.886Z,26240
2017-10-12T13:11:07.623Z,22720
2017-10-12T13:12:10.015Z,22752
2017-10-12T13:13:12.753Z,17268
2017-10-12T13:14:15.136Z,13464
2017-10-12T13:15:17.866Z,11728
2017-10-12T13:16:20.250Z,12516
2017-10-12T13:17:22.630Z,13972
2017-10-12T13:18:25.008Z,24320
2017-10-12T13:19:27.385Z,29440
2017-10-12T13:20:29.775Z,15988
2017-10-12T13:21:32.161Z,15424
2017-10-12T13:22:34.544Z,17572
2017-10-12T13:23:36.924Z,25088
2017-10-12T13:24:39.312Z,20544
2017-10-12T13:25:41.692Z,41056
2017-10-12T13:26:44.433Z,32192
2017-10-12T13:28:06.024Z,31776
2017-10-12T13:29:08.478Z,29152
2017-10-12T13:30:10.907Z,38624
2017-10-12T13:31:13.352Z,24000
2017-10-12T13:32:16.145Z,13356
2017-10-12T13:33:18.573Z,14404
2017-10-12T13:34:21.006Z,34528
2017-10-12T13:35:23.455Z,15152
2017-10-12T13:36:25.878Z,12408
2017-10-12T13:37:28.330Z,9184
2017-10-12T13:38:30.772Z,7464
2017-10-12T13:39:33.567Z,7932
2017-10-12T13:40:36.025Z,7788
2017-10-12T13:41:38.821Z,5996
2017-10-12T13:42:41.258Z,5376
2017-10-12T13:43:43.697Z,4812
2017-10-12T13:44:46.125Z,5584
2017-10-12T13:45:48.566Z,7956
2017-10-12T13:46:51.018Z,14016
2017-10-12T13:47:53.452Z,38272
2017-10-12T13:48:56.606Z,20320
2017-10-12T13:49:59.040Z,32832
2017-10-12T13:51:01.468Z,51680
2017-10-12T13:52:03.910Z,49952
2017-10-12T13:53:06.344Z,32832
2017-10-12T13:54:08.766Z,33472
2017-10-12T13:55:11.203Z,38592
2017-10-12T13:56:13.635Z,45600
2017-10-12T13:57:16.432Z,47520
2017-10-12T13:58:18.874Z,38400
2017-10-12T13:59:21.322Z,41280
2017-10-12T14:00:23.764Z,26976
2017-10-12T14:01:26.561Z,26560
2017-10-12T14:02:28.998Z,34624
2017-10-12T14:03:31.800Z,27424
2017-10-12T14:04:34.235Z,20032
2017-10-12T14:05:36.675Z,19648
2017-10-12T14:06:39.105Z,32320
2017-10-12T14:07:41.544Z,20768
2017-10-12T14:08:43.978Z,27104
2017-10-12T14:09:46.424Z,19456
2017-10-12T14:10:48.848Z,33120
2017-10-12T14:11:51.642Z,32992